createdAt,value
2023-04-15T00:01:39.079Z,10.37
2023-04-15T00:04:05.674Z,10.17
2023-04-15T00:06:32.520Z,9.87
2023-04-15T00:08:59.344Z,10.07
2023-04-15T00:11:26.250Z,12.13
2023-04-15T00:13:52.754Z,12.03
2023-04-15T00:16:19.441Z,12.67
2023-04-15T00:18:46.038Z,12.50
2023-04-15T00:21:12.591Z,10.83
2023-04-15T00:23:39.189Z,9.77
2023-04-15T00:26:05.778Z,9.70
2023-04-15T00:28:32.363Z,11.60
2023-04-15T00:30:59.408Z,9.53
2023-04-15T00:33:25.963Z,9.37
2023-04-15T00:35:52.546Z,8.93
2023-04-15T00:38:19.639Z,8.40
2023-04-15T00:40:46.266Z,10.23
2023-04-15T00:43:12.891Z,8.37
2023-04-15T00:45:39.417Z,10.10
2023-04-15T00:48:06.057Z,10.47
2023-04-15T00:50:33.604Z,9.17
2023-04-15T00:53:00.137Z,9.77
2023-04-15T00:55:26.934Z,9.40
2023-04-15T00:57:53.532Z,11.10
2023-04-15T01:00:20.612Z,11.13
2023-04-15T01:02:47.821Z,10.83
2023-04-15T01:05:17.287Z,9.40
2023-04-15T01:07:43.834Z,8.20
2023-04-15T01:10:10.494Z,10.10
2023-04-15T01:12:37.876Z,10.13
2023-04-15T01:15:04.533Z,9.90
2023-04-15T01:17:31.586Z,9.67
2023-04-15T01:19:58.200Z,9.73
2023-04-15T01:22:26.759Z,10.83
2023-04-15T01:25:23.217Z,11.20
2023-04-15T01:27:49.777Z,9.77
2023-04-15T01:30:16.335Z,8.90
2023-04-15T01:32:43.109Z,12.33
2023-04-15T01:35:09.996Z,9.77
2023-04-15T01:37:36.863Z,10.80
2023-04-15T01:40:03.615Z,10.70
2023-04-15T01:42:30.244Z,10.20
2023-04-15T01:44:57.102Z,11.17
2023-04-15T01:47:23.655Z,11.60
2023-04-15T01:49:50.422Z,11.93
2023-04-15T01:52:17.009Z,10.87
2023-04-15T01:54:43.536Z,10.10
2023-04-15T01:57:10.096Z,10.53
2023-04-15T01:59:37.258Z,11.33
2023-04-15T02:02:04.467Z,12.13
2023-04-15T02:04:31.838Z,11.47
2023-04-15T02:06:58.387Z,11.13
2023-04-15T02:09:25.024Z,14.53
2023-04-15T02:11:53.068Z,13.40
2023-04-15T02:14:19.803Z,11.67
2023-04-15T02:16:46.602Z,12.30
2023-04-15T02:19:14.094Z,12.87
2023-04-15T02:21:40.821Z,12.27
2023-04-15T02:24:07.531Z,13.53
2023-04-15T02:26:34.174Z,11.43
2023-04-15T02:29:01.131Z,14.23
2023-04-15T02:31:28.020Z,11.50
2023-04-15T02:33:54.583Z,13.77
2023-04-15T02:36:21.464Z,15.87
2023-04-15T02:38:47.987Z,13.23
2023-04-15T02:41:14.598Z,12.17
2023-04-15T02:43:41.241Z,14.23
2023-04-15T02:46:07.822Z,15.80
2023-04-15T02:48:34.416Z,14.60
2023-04-15T02:51:13.391Z,14.47
2023-04-15T02:53:40.112Z,14.80
2023-04-15T02:56:06.820Z,14.10
2023-04-15T02:58:34.853Z,16.23
2023-04-15T03:01:01.572Z,16.90
2023-04-15T03:03:28.838Z,15.53
2023-04-15T03:05:55.440Z,19.10
2023-04-15T03:08:21.992Z,19.50
2023-04-15T03:10:48.943Z,18.77
2023-04-15T03:13:15.521Z,22.43
2023-04-15T03:15:42.288Z,18.17
2023-04-15T03:18:08.926Z,18.97
2023-04-15T03:20:36.622Z,20.27
2023-04-15T03:23:03.383Z,17.57
2023-04-15T03:25:30.024Z,17.57
2023-04-15T03:27:56.861Z,19.50
2023-04-15T03:30:23.388Z,18.23
2023-04-15T03:32:49.876Z,18.23
2023-04-15T03:35:16.566Z,18.57
2023-04-15T03:37:43.074Z,21.63
2023-04-15T03:40:10.009Z,21.37
2023-04-15T03:42:36.609Z,24.03
2023-04-15T03:45:03.623Z,24.47
2023-04-15T03:47:30.425Z,21.13
2023-04-15T03:49:56.996Z,17.87
2023-04-15T03:52:23.572Z,20.50
2023-04-15T03:54:50.249Z,21.63
2023-04-15T03:57:16.824Z,21.33
2023-04-15T03:59:43.948Z,23.90
2023-04-15T04:02:10.665Z,22.87
2023-04-15T04:04:37.512Z,25.40
2023-04-15T04:07:04.157Z,24.37
2023-04-15T04:09:30.724Z,26.13
2023-04-15T04:11:58.380Z,27.00
2023-04-15T04:14:44.925Z,26.63
2023-04-15T04:17:31.513Z,27.93
2023-04-15T04:20:18.003Z,26.87
2023-04-15T04:22:49.872Z,24.03
2023-04-15T04:25:27.602Z,27.70
2023-04-15T04:28:14.058Z,24.90
2023-04-15T04:30:43.411Z,25.00
2023-04-15T04:33:10.491Z,24.97
2023-04-15T04:35:37.861Z,22.67
2023-04-15T04:38:04.634Z,24.83
2023-04-15T04:40:31.351Z,25.93
2023-04-15T04:42:57.977Z,22.07
2023-04-15T04:45:24.476Z,27.50
2023-04-15T04:47:51.170Z,23.53
2023-04-15T04:50:17.956Z,26.33
2023-04-15T04:52:44.457Z,26.33
2023-04-15T04:55:11.119Z,27.20
2023-04-15T04:57:39.486Z,24.73
2023-04-15T05:00:08.556Z,25.60
2023-04-15T05:02:35.458Z,25.87
2023-04-15T05:05:02.084Z,25.93
2023-04-15T05:07:28.652Z,24.37
2023-04-15T05:09:55.169Z,21.47
2023-04-15T05:12:21.705Z,22.67
2023-04-15T05:14:48.246Z,22.60
2023-04-15T05:17:15.404Z,23.60
2023-04-15T05:19:41.970Z,25.37
2023-04-15T05:22:08.608Z,22.43
2023-04-15T05:24:35.129Z,23.80
2023-04-15T05:27:02.228Z,25.10
2023-04-15T05:29:28.736Z,25.33
2023-04-15T05:31:56.138Z,23.10
2023-04-15T05:34:23.012Z,24.63
2023-04-15T05:36:49.526Z,27.97
2023-04-15T05:39:16.241Z,25.90
2023-04-15T05:41:42.760Z,29.70
2023-04-15T05:44:09.283Z,25.07
2023-04-15T05:46:35.826Z,30.57
2023-04-15T05:49:02.729Z,25.97
2023-04-15T05:51:29.497Z,26.97
2023-04-15T05:53:56.345Z,28.03
2023-04-15T05:56:22.906Z,28.00
2023-04-15T05:58:50.537Z,29.23
2023-04-15T06:01:17.940Z,27.37
2023-04-15T06:03:45.058Z,27.27
2023-04-15T06:06:11.855Z,27.50
2023-04-15T06:08:38.433Z,28.03
2023-04-15T06:11:04.999Z,27.93
2023-04-15T06:13:31.550Z,28.23
2023-04-15T06:15:58.648Z,32.57
2023-04-15T06:18:25.177Z,31.50
2023-04-15T06:20:52.099Z,34.60
2023-04-15T06:23:18.735Z,35.13
2023-04-15T06:25:45.242Z,33.57
2023-04-15T06:28:12.052Z,33.37
2023-04-15T06:30:39.171Z,31.13
2023-04-15T06:33:06.345Z,35.40
2023-04-15T06:35:32.832Z,34.27
2023-04-15T06:37:59.407Z,32.73
2023-04-15T06:40:26.039Z,35.00
2023-04-15T06:42:52.674Z,31.57
2023-04-15T06:45:19.224Z,33.20
2023-04-15T06:47:45.806Z,33.97
2023-04-15T06:50:12.602Z,34.83
2023-04-15T06:52:39.320Z,34.87
2023-04-15T06:55:07.053Z,33.07
2023-04-15T06:57:35.054Z,33.90
2023-04-15T07:00:01.854Z,33.67
2023-04-15T07:02:28.590Z,31.77
2023-04-15T07:04:55.695Z,34.50
2023-04-15T07:07:22.334Z,33.93
2023-04-15T07:09:48.918Z,35.30
2023-04-15T07:12:15.434Z,35.67
2023-04-15T07:14:41.964Z,36.43
2023-04-15T07:17:09.400Z,36.50
2023-04-15T07:19:35.983Z,38.80
2023-04-15T07:22:02.485Z,39.03
2023-04-15T07:24:29.113Z,37.87
2023-04-15T07:27:00.885Z,38.37
2023-04-15T07:29:27.940Z,39.60
2023-04-15T07:31:54.614Z,40.67
2023-04-15T07:34:21.271Z,38.23
2023-04-15T07:36:50.686Z,40.40
2023-04-15T07:39:17.716Z,39.53
2023-04-15T07:41:44.345Z,41.53
2023-04-15T07:44:11.333Z,41.93
2023-04-15T07:46:38.775Z,38.37
2023-04-15T07:49:05.446Z,41.30
2023-04-15T07:51:32.385Z,43.70
2023-04-15T07:53:59.341Z,42.77
2023-04-15T07:56:26.649Z,42.17
2023-04-15T07:58:53.434Z,42.93
2023-04-15T08:01:20.011Z,40.90
2023-04-15T08:03:47.253Z,46.33
2023-04-15T08:06:14.379Z,41.03
2023-04-15T08:08:40.880Z,42.67
2023-04-15T08:11:07.461Z,41.77
2023-04-15T08:13:34.040Z,39.83
2023-04-15T08:16:19.449Z,39.23
2023-04-15T08:18:46.679Z,41.87
2023-04-15T08:21:13.527Z,44.10
2023-04-15T08:23:40.210Z,43.77
2023-04-15T08:26:07.701Z,43.00
2023-04-15T08:28:34.374Z,42.27
2023-04-15T08:31:01.836Z,41.67
2023-04-15T08:33:29.119Z,40.83
2023-04-15T08:35:55.673Z,38.77
2023-04-15T08:38:22.786Z,37.27
2023-04-15T08:40:49.573Z,37.80
2023-04-15T08:43:21.386Z,41.43
2023-04-15T08:45:49.778Z,38.77
2023-04-15T08:48:17.003Z,39.67
2023-04-15T08:50:43.676Z,37.57
2023-04-15T08:53:11.021Z,35.73
2023-04-15T08:55:39.973Z,36.10
2023-04-15T08:58:06.819Z,34.43
2023-04-15T09:00:34.108Z,42.40
2023-04-15T09:03:01.119Z,36.03
2023-04-15T09:05:27.783Z,35.60
2023-04-15T09:07:54.291Z,38.47
2023-04-15T09:10:20.841Z,34.17
2023-04-15T09:12:47.338Z,33.83
2023-04-15T09:15:14.309Z,34.70
2023-04-15T09:17:45.006Z,34.40
2023-04-15T09:20:15.567Z,31.27
2023-04-15T09:22:43.402Z,32.97
2023-04-15T09:25:16.461Z,32.30
2023-04-15T09:27:49.914Z,33.47
2023-04-15T09:30:16.907Z,27.50
2023-04-15T09:32:50.598Z,30.97
2023-04-15T09:35:17.458Z,30.03
2023-04-15T09:37:43.956Z,30.73
2023-04-15T09:40:11.120Z,28.70
2023-04-15T09:42:38.125Z,26.57
2023-04-15T09:45:12.090Z,26.93
2023-04-15T09:47:38.725Z,28.83
2023-04-15T09:50:05.552Z,27.70
2023-04-15T09:52:32.111Z,27.63
2023-04-15T09:54:59.549Z,26.37
2023-04-15T09:57:33.632Z,26.23
2023-04-15T10:00:00.264Z,24.17
2023-04-15T10:02:27.462Z,25.63
2023-04-15T10:04:54.865Z,25.40
2023-04-15T10:07:22.485Z,24.17
2023-04-15T10:09:49.440Z,24.90
2023-04-15T10:12:17.886Z,22.73
2023-04-15T10:14:44.640Z,22.57
2023-04-15T10:17:12.712Z,21.10
2023-04-15T10:19:40.589Z,22.20
2023-04-15T10:22:07.893Z,22.00
2023-04-15T10:24:34.532Z,20.67
2023-04-15T10:27:04.023Z,20.73
2023-04-15T10:29:30.953Z,23.13
2023-04-15T10:31:59.076Z,20.43
2023-04-15T10:34:26.121Z,22.47
2023-04-15T10:36:56.595Z,21.07
2023-04-15T10:39:38.731Z,22.83
2023-04-15T10:42:13.195Z,20.53
2023-04-15T10:44:41.973Z,18.43
2023-04-15T10:47:12.759Z,21.53
2023-04-15T10:49:52.531Z,20.90
2023-04-15T10:52:23.903Z,22.43
2023-04-15T10:54:50.850Z,20.10
2023-04-15T10:57:22.401Z,18.47
2023-04-15T10:59:58.815Z,17.97
2023-04-15T11:02:42.077Z,16.87
2023-04-15T11:05:09.207Z,19.90
2023-04-15T11:08:02.677Z,19.73
2023-04-15T11:10:29.327Z,20.77
2023-04-15T11:13:00.604Z,18.23
2023-04-15T11:15:34.433Z,19.70
2023-04-15T11:18:20.893Z,19.57
2023-04-15T11:21:00.204Z,19.40
2023-04-15T11:23:31.734Z,20.07
2023-04-15T11:25:59.515Z,19.07
2023-04-15T11:28:30.425Z,19.03
2023-04-15T11:30:57.436Z,20.10
2023-04-15T11:33:24.400Z,20.43
2023-04-15T11:35:52.814Z,21.40
2023-04-15T11:38:19.767Z,21.50
2023-04-15T11:40:47.240Z,23.93
2023-04-15T11:43:21.166Z,25.13
2023-04-15T11:45:48.956Z,23.97
2023-04-15T11:48:15.772Z,24.63
2023-04-15T11:50:42.319Z,23.40
2023-04-15T11:53:10.176Z,23.87
2023-04-15T11:55:44.739Z,23.03
2023-04-15T11:58:13.590Z,24.47
2023-04-15T12:00:42.075Z,25.40
2023-04-15T12:03:12.806Z,24.87
2023-04-15T12:05:58.662Z,27.63
2023-04-15T12:08:25.557Z,29.73
2023-04-15T12:10:52.141Z,32.43
2023-04-15T12:13:18.880Z,32.30
2023-04-15T12:15:45.459Z,31.40
2023-04-15T12:18:18.834Z,28.73
2023-04-15T12:20:45.920Z,31.50
2023-04-15T12:23:12.441Z,31.77
2023-04-15T12:25:39.420Z,33.23
2023-04-15T12:28:12.989Z,34.10
2023-04-15T12:30:48.932Z,33.50
2023-04-15T12:33:15.487Z,30.33
2023-04-15T12:35:42.178Z,34.30
2023-04-15T12:38:10.920Z,32.77
2023-04-15T12:40:37.418Z,33.20
2023-04-15T12:43:03.987Z,33.30
2023-04-15T12:45:30.795Z,35.03
2023-04-15T12:47:57.407Z,32.70
2023-04-15T12:50:23.902Z,33.03
2023-04-15T12:52:51.061Z,34.20
2023-04-15T12:55:18.177Z,34.43
2023-04-15T12:57:44.729Z,36.70
2023-04-15T13:00:12.256Z,36.83
2023-04-15T13:02:38.876Z,35.90
2023-04-15T13:05:05.823Z,36.23
2023-04-15T13:07:32.380Z,35.53
2023-04-15T13:09:58.958Z,34.67
2023-04-15T13:12:25.675Z,37.57
2023-04-15T13:14:52.512Z,38.07
2023-04-15T13:17:20.605Z,38.33
2023-04-15T13:19:47.395Z,39.63
2023-04-15T13:22:15.011Z,40.43
2023-04-15T13:24:41.705Z,37.90
2023-04-15T13:27:08.407Z,37.60
2023-04-15T13:29:34.917Z,37.73
2023-04-15T13:32:01.728Z,40.87
2023-04-15T13:34:28.388Z,39.43
2023-04-15T13:36:55.012Z,39.40
2023-04-15T13:39:21.653Z,43.97
2023-04-15T13:41:48.621Z,39.33
2023-04-15T13:44:15.175Z,37.03
2023-04-15T13:46:44.884Z,40.30
2023-04-15T13:49:11.677Z,37.57
2023-04-15T13:51:38.605Z,42.37
2023-04-15T13:54:05.757Z,40.87
2023-04-15T13:56:33.476Z,41.97
2023-04-15T13:59:03.288Z,46.53
2023-04-15T14:01:30.832Z,43.50
2023-04-15T14:03:58.401Z,39.67
2023-04-15T14:06:26.763Z,45.27
2023-04-15T14:08:54.303Z,41.87
2023-04-15T14:11:22.027Z,48.97
2023-04-15T14:13:49.701Z,49.80
2023-04-15T14:16:17.740Z,49.27
2023-04-15T14:18:48.723Z,50.63
2023-04-15T14:21:17.037Z,50.23
2023-04-15T14:23:45.325Z,57.17
2023-04-15T14:26:14.252Z,50.70
2023-04-15T14:28:42.014Z,56.60
2023-04-15T14:31:09.391Z,50.20
2023-04-15T14:33:36.618Z,51.90
2023-04-15T14:36:04.806Z,54.97
2023-04-15T14:38:34.357Z,55.07
2023-04-15T14:41:01.456Z,62.83
2023-04-15T14:43:28.038Z,57.83
2023-04-15T14:45:55.360Z,62.53
2023-04-15T14:48:22.125Z,59.37
2023-04-15T14:50:48.730Z,59.50
2023-04-15T14:53:15.457Z,54.00
2023-04-15T14:55:42.150Z,55.47
2023-04-15T14:58:09.480Z,53.77
2023-04-15T15:00:39.256Z,51.23
2023-04-15T15:03:12.682Z,55.00
2023-04-15T15:05:40.583Z,52.07
2023-04-15T15:08:08.221Z,56.37
2023-04-15T15:10:48.722Z,55.83
2023-04-15T15:13:16.835Z,55.37
2023-04-15T15:15:43.393Z,56.17
2023-04-15T15:18:10.420Z,57.33
2023-04-15T15:20:37.217Z,57.10
2023-04-15T15:23:03.747Z,54.77
2023-04-15T15:25:30.493Z,53.80
2023-04-15T15:27:58.203Z,55.00
2023-04-15T15:30:24.887Z,62.70
2023-04-15T15:32:51.696Z,55.83
2023-04-15T15:35:18.346Z,57.77
2023-04-15T15:37:45.561Z,55.77
2023-04-15T15:40:12.474Z,60.67
2023-04-15T15:42:39.245Z,60.60
2023-04-15T15:45:06.135Z,50.50
2023-04-15T15:47:32.907Z,57.93
2023-04-15T15:50:00.696Z,49.83
2023-04-15T15:52:27.727Z,49.83
2023-04-15T15:54:54.476Z,47.43
2023-04-15T15:57:21.297Z,47.20
2023-04-15T15:59:47.975Z,49.33
2023-04-15T16:02:14.920Z,47.83
2023-04-15T16:04:43.332Z,51.67
2023-04-15T16:07:11.008Z,47.57
2023-04-15T16:09:37.816Z,42.30
2023-04-15T16:12:04.555Z,46.27
2023-04-15T16:14:31.247Z,47.37
2023-04-15T16:16:58.113Z,42.07
2023-04-15T16:19:24.848Z,39.10
2023-04-15T16:21:51.502Z,38.17
2023-04-15T16:24:18.235Z,42.47
2023-04-15T16:26:44.882Z,41.93
2023-04-15T16:29:11.627Z,42.53
2023-04-15T16:31:40.664Z,45.43
2023-04-15T16:34:07.366Z,44.47
2023-04-15T16:36:34.964Z,47.67
2023-04-15T16:39:02.077Z,46.87
2023-04-15T16:41:29.177Z,46.50
2023-04-15T16:43:57.016Z,45.60
2023-04-15T16:46:23.653Z,47.43
2023-04-15T16:48:50.401Z,47.97
2023-04-15T16:51:17.132Z,48.83
2023-04-15T16:53:43.715Z,50.63
2023-04-15T16:56:10.474Z,46.70
2023-04-15T16:58:37.093Z,52.57
2023-04-15T17:01:03.814Z,51.83
2023-04-15T17:03:31.191Z,45.17
2023-04-15T17:05:57.877Z,49.40
2023-04-15T17:08:24.484Z,48.47
2023-04-15T17:10:51.883Z,50.97
2023-04-15T17:13:18.564Z,52.33
2023-04-15T17:15:45.196Z,51.27
2023-04-15T17:18:12.251Z,47.53
2023-04-15T17:20:39.314Z,51.23
2023-04-15T17:23:06.002Z,49.90
2023-04-15T17:25:32.584Z,50.30
2023-04-15T17:27:59.213Z,46.63
2023-04-15T17:30:25.785Z,51.77
2023-04-15T17:32:52.456Z,51.20
2023-04-15T17:35:23.565Z,50.57
2023-04-15T17:37:50.190Z,48.23
2023-04-15T17:40:17.037Z,50.60
2023-04-15T17:42:44.129Z,52.20
2023-04-15T17:45:11.277Z,46.47
2023-04-15T17:47:38.192Z,48.93
2023-04-15T17:50:05.066Z,52.77
2023-04-15T17:52:32.190Z,53.27
2023-04-15T17:54:59.529Z,50.33
2023-04-15T17:57:26.320Z,56.90
2023-04-15T17:59:53.074Z,58.70
2023-04-15T18:02:19.758Z,58.37
2023-04-15T18:04:46.609Z,59.83
2023-04-15T18:07:13.365Z,62.70
2023-04-15T18:09:40.004Z,62.90
2023-04-15T18:12:09.064Z,54.23
2023-04-15T18:14:36.545Z,64.83
2023-04-15T18:17:03.400Z,67.20
2023-04-15T18:19:30.464Z,64.93
2023-04-15T18:21:57.346Z,66.40
2023-04-15T18:24:23.935Z,67.80
2023-04-15T18:26:50.562Z,69.90
2023-04-15T18:29:18.675Z,68.17
2023-04-15T18:31:45.334Z,71.33
2023-04-15T18:34:11.867Z,73.43
2023-04-15T18:36:38.569Z,68.60
2023-04-15T18:39:05.836Z,73.80
2023-04-15T18:41:32.547Z,69.40
2023-04-15T18:43:59.116Z,67.97
2023-04-15T18:46:25.933Z,72.10
2023-04-15T18:48:52.628Z,70.90
2023-04-15T18:51:19.245Z,67.10
2023-04-15T18:53:45.959Z,68.40
2023-04-15T18:56:12.577Z,70.17
2023-04-15T18:59:10.106Z,79.37
2023-04-15T19:01:26.438Z,72.20
2023-04-15T19:03:53.130Z,78.80
2023-04-15T19:06:19.688Z,75.43
2023-04-15T19:08:46.316Z,73.93
2023-04-15T19:11:13.028Z,79.27
2023-04-15T19:13:39.650Z,82.13
2023-04-15T19:16:06.389Z,73.97
2023-04-15T19:18:33.227Z,83.53
2023-04-15T19:20:59.988Z,80.17
2023-04-15T19:23:26.804Z,84.03
2023-04-15T19:25:53.448Z,84.80
2023-04-15T19:28:20.200Z,90.17
2023-04-15T19:30:47.475Z,83.70
2023-04-15T19:33:15.294Z,82.63
2023-04-15T19:35:42.245Z,83.60
2023-04-15T19:38:09.022Z,85.53
2023-04-15T19:40:35.758Z,85.27
2023-04-15T19:43:02.394Z,92.37
2023-04-15T19:45:29.155Z,95.07
2023-04-15T19:47:56.048Z,92.73
2023-04-15T19:50:26.440Z,94.33
2023-04-15T19:52:53.486Z,92.43
2023-04-15T19:55:20.209Z,97.37
2023-04-15T19:57:47.132Z,90.43
2023-04-15T20:00:15.112Z,98.17
2023-04-15T20:02:41.953Z,95.17
2023-04-15T20:05:10.497Z,88.53
2023-04-15T20:07:38.161Z,93.97
2023-04-15T20:10:12.474Z,82.43
2023-04-15T20:12:51.137Z,96.33
2023-04-15T20:15:19.385Z,94.43
2023-04-15T20:17:46.266Z,93.23
2023-04-15T20:20:13.053Z,91.27
2023-04-15T20:22:39.863Z,90.63
2023-04-15T20:25:06.730Z,95.23
2023-04-15T20:27:33.327Z,91.50
2023-04-15T20:30:00.033Z,81.53
2023-04-15T20:32:28.397Z,95.57
2023-04-15T20:34:55.274Z,86.43
2023-04-15T20:37:22.454Z,87.80
2023-04-15T20:39:49.258Z,92.03
2023-04-15T20:42:15.968Z,84.10
2023-04-15T20:44:42.493Z,97.30
2023-04-15T20:47:09.205Z,92.20
2023-04-15T20:49:36.429Z,87.73
2023-04-15T20:52:03.568Z,87.77
2023-04-15T20:54:30.498Z,80.47
2023-04-15T20:56:59.987Z,85.93
2023-04-15T20:59:26.565Z,76.37
2023-04-15T21:01:53.250Z,80.13
2023-04-15T21:04:22.256Z,85.33
2023-04-15T21:06:49.802Z,84.63
2023-04-15T21:09:16.464Z,80.50
2023-04-15T21:11:59.877Z,83.67
2023-04-15T21:14:28.355Z,82.87
2023-04-15T21:16:55.076Z,96.47
2023-04-15T21:19:22.931Z,82.13
2023-04-15T21:21:50.105Z,93.43
2023-04-15T21:24:18.030Z,83.10
2023-04-15T21:26:49.606Z,100.10
2023-04-15T21:29:21.109Z,94.97
2023-04-15T21:31:49.366Z,100.70
2023-04-15T21:34:17.518Z,107.37
2023-04-15T21:36:44.615Z,111.40
2023-04-15T21:39:11.982Z,107.37
2023-04-15T21:41:38.751Z,108.43
2023-04-15T21:44:06.140Z,101.40
2023-04-15T21:46:35.221Z,103.80
2023-04-15T21:49:03.263Z,102.30
2023-04-15T21:51:31.854Z,104.00
2023-04-15T21:53:59.500Z,94.93
2023-04-15T21:56:27.133Z,94.90
2023-04-15T21:58:55.812Z,107.60
2023-04-15T22:01:22.860Z,97.47
2023-04-15T22:03:50.841Z,97.70
2023-04-15T22:06:17.775Z,93.97
2023-04-15T22:08:55.199Z,95.20
2023-04-15T22:11:26.876Z,92.53
2023-04-15T22:13:54.589Z,86.87
2023-04-15T22:16:21.255Z,96.03
2023-04-15T22:18:47.814Z,96.27
2023-04-15T22:21:14.539Z,86.07
2023-04-15T22:23:41.182Z,82.50
2023-04-15T22:26:07.856Z,88.13
2023-04-15T22:28:34.462Z,91.13
2023-04-15T22:31:00.973Z,90.40
2023-04-15T22:33:27.667Z,87.20
2023-04-15T22:35:54.470Z,91.10
2023-04-15T22:38:21.246Z,89.63
2023-04-15T22:40:47.785Z,81.60
2023-04-15T22:43:14.339Z,83.90
2023-04-15T22:45:40.870Z,80.67
2023-04-15T22:48:07.417Z,92.70
2023-04-15T22:50:36.748Z,79.93
2023-04-15T22:53:03.225Z,86.07
2023-04-15T22:55:29.785Z,72.37
2023-04-15T22:57:56.474Z,75.53
2023-04-15T23:00:23.049Z,78.33
2023-04-15T23:02:49.854Z,84.47
2023-04-15T23:05:16.612Z,83.93
2023-04-15T23:07:43.176Z,78.07
2023-04-15T23:10:09.863Z,73.27
2023-04-15T23:12:36.472Z,79.50
2023-04-15T23:15:03.317Z,60.87
2023-04-15T23:17:30.023Z,72.07
2023-04-15T23:19:56.854Z,69.73
2023-04-15T23:22:23.515Z,67.10
2023-04-15T23:24:50.045Z,63.10
2023-04-15T23:27:19.065Z,59.37
2023-04-15T23:29:46.108Z,67.87
2023-04-15T23:32:12.676Z,65.50
2023-04-15T23:34:39.260Z,64.00
2023-04-15T23:37:05.914Z,60.37
2023-04-15T23:39:32.450Z,65.47
2023-04-15T23:41:59.051Z,58.37
2023-04-15T23:44:25.601Z,60.00
2023-04-15T23:46:52.246Z,60.47
2023-04-15T23:49:20.334Z,60.50
2023-04-15T23:51:47.293Z,57.57
2023-04-15T23:54:13.880Z,62.77
2023-04-15T23:56:40.460Z,55.87
2023-04-15T23:59:07.116Z,60.93
